Time;durP1;ratioP1;P1;durP2;ratioP2;P2;SDS_P1;SDS_P2;PMS_P1;PMS_P2;Temp;Humidity;BMP_temperature;BMP_pressure;BME280_temperature;BME280_humidity;BME280_pressure;Samples;Min_cycle;Max_cycle;Signal;HPM_P1;HPM_P2
2023/02/19 00:01:41;;;;;;;0.40;0.40;;;14.40;99.90;;;13.83;66.66;101427.88;6144077;22;100447;-47
2023/02/19 00:04:14;;;;;;;0.80;0.50;;;14.20;99.90;;;13.92;64.13;101432.88;6142736;22;97042;-49
2023/02/19 00:06:41;;;;;;;1.30;0.80;;;14.20;99.90;;;14.00;64.78;101424.59;6149926;22;97742;-49
2023/02/19 00:09:12;;;;;;;1.07;0.67;;;14.30;99.90;;;13.93;64.15;101416.03;6142522;22;97307;-46
2023/02/19 00:11:39;;;;;;;0.70;0.43;;;14.30;99.90;;;14.08;63.50;101421.69;6150343;22;97709;-50
2023/02/19 00:14:05;;;;;;;1.83;0.90;;;14.40;99.90;;;14.15;63.71;101423.16;6143053;22;97396;-49
2023/02/19 00:16:38;;;;;;;1.03;0.53;;;14.50;99.90;;;14.27;62.24;101414.72;6148040;22;96892;-45
2023/02/19 00:19:09;;;;;;;1.23;0.80;;;14.60;99.90;;;14.27;62.71;101412.06;6146467;22;97215;-48
2023/02/19 00:21:35;;;;;;;1.63;0.90;;;14.60;99.90;;;14.27;63.62;101406.78;6121005;22;96865;-49
2023/02/19 00:24:05;;;;;;;1.07;0.80;;;14.60;99.90;;;14.22;63.05;101404.31;6142880;22;97582;-47
2023/02/19 00:26:33;;;;;;;1.00;0.63;;;14.60;99.90;;;14.22;62.48;101409.59;6147532;22;97148;-49
2023/02/19 00:29:00;;;;;;;2.30;0.73;;;14.50;99.90;;;14.04;65.23;101420.06;6143670;22;97354;-48
2023/02/19 00:31:32;;;;;;;1.20;0.87;;;14.40;99.90;;;14.03;65.04;101407.69;6145785;22;97854;-44
2023/02/19 00:34:01;;;;;;;0.83;0.60;;;14.40;99.90;;;14.02;64.43;101411.28;6144320;22;99318;-49
2023/02/19 00:36:32;;;;;;;1.07;0.70;;;14.40;99.90;;;14.14;63.60;101405.50;6120534;22;97085;-47
2023/02/19 00:38:58;;;;;;;1.00;0.83;;;14.50;99.90;;;13.98;64.98;101397.28;6142417;22;96719;-46
2023/02/19 00:41:25;;;;;;;1.60;0.77;;;14.40;99.90;;;13.92;65.68;101401.03;6146659;22;97344;-49
2023/02/19 00:43:57;;;;;;;0.80;0.80;;;14.30;99.90;;;13.92;64.78;101395.72;6142312;22;97450;-46
2023/02/19 00:46:27;;;;;;;0.97;0.67;;;14.30;99.90;;;14.02;65.10;101392.72;6147078;22;98914;-48
2023/02/19 00:48:55;;;;;;;0.93;0.67;;;14.40;99.90;;;14.05;63.19;101396.13;6145051;22;97473;-47
2023/02/19 00:51:23;;;;;;;1.47;0.70;;;14.40;99.90;;;14.03;64.53;101391.78;6148484;22;98056;-45
2023/02/19 00:53:49;;;;;;;1.13;0.93;;;14.40;99.90;;;14.08;63.64;101392.50;6146539;22;97123;-47
2023/02/19 00:56:16;;;;;;;0.63;0.40;;;14.40;99.90;;;14.16;62.31;101393.03;6142749;22;97049;-49
2023/02/19 00:58:42;;;;;;;1.33;1.03;;;14.50;99.90;;;14.16;63.70;101382.44;6148343;22;96608;-48
2023/02/19 01:01:09;;;;;;;0.83;0.67;;;14.40;99.90;;;14.23;62.55;101389.25;6142186;22;98177;-48
2023/02/19 01:03:37;;;;;;;1.17;0.80;;;14.50;99.90;;;14.25;62.99;101390.03;6146843;22;97598;-46
2023/02/19 01:06:05;;;;;;;0.70;0.57;;;14.50;99.90;;;14.24;63.18;101380.34;6142567;22;97201;-50
2023/02/19 01:08:33;;;;;;;1.07;0.70;;;14.50;99.90;;;14.17;63.63;101385.03;6147222;22;96908;-51
2023/02/19 01:11:00;;;;;;;1.10;0.70;;;14.50;99.90;;;14.20;63.04;101384.06;6140236;22;96964;-46
2023/02/19 01:13:27;;;;;;;1.33;0.80;;;14.50;99.90;;;14.17;63.59;101381.50;6145948;22;97486;-45
2023/02/19 01:15:55;;;;;;;1.10;0.63;;;14.50;99.90;;;14.03;64.43;101391.78;6140135;22;97830;-45
2023/02/19 01:18:21;;;;;;;3.00;1.20;;;14.40;99.90;;;13.84;65.09;101392.50;6119168;22;97087;-49
2023/02/19 01:20:47;;;;;;;1.30;0.60;;;14.20;99.90;;;13.97;63.11;101395.56;6146280;22;98254;-47
2023/02/19 01:23:13;;;;;;;0.30;0.30;;;14.30;99.90;;;13.98;63.91;101390.19;6140339;22;97213;-48
2023/02/19 01:25:40;;;;;;;1.53;0.70;;;14.30;99.90;;;13.85;65.22;101378.31;6145903;22;97197;-45
2023/02/19 01:28:08;;;;;;;0.73;0.53;;;14.30;99.90;;;13.96;62.91;101378.78;6136191;22;96658;-51
2023/02/19 01:30:38;;;;;;;0.40;0.30;;;14.30;99.90;;;14.06;62.06;101378.44;6094583;22;97344;-49
2023/02/19 01:33:08;;;;;;;2.00;0.70;;;14.40;99.90;;;13.94;63.96;101374.47;6118965;22;97538;-48
2023/02/19 01:35:38;;;;;;;0.90;0.53;;;14.30;99.90;;;14.02;63.69;101371.50;6107393;22;97633;-50
2023/02/19 01:38:06;;;;;;;1.50;0.90;;;14.40;99.90;;;14.05;63.27;101382.00;6132286;22;97457;-47
2023/02/19 01:40:32;;;;;;;1.70;0.77;;;14.40;99.90;;;14.10;62.66;101382.69;6135937;22;97485;-45
2023/02/19 01:42:57;;;;;;;1.20;0.97;;;14.40;99.90;;;13.95;63.91;101369.09;6129918;22;97421;-47
2023/02/19 01:45:33;;;;;;;1.40;0.50;;;14.30;99.90;;;13.93;63.82;101375.38;6134267;22;97925;-48
2023/02/19 01:48:11;;;;;;;1.73;0.70;;;14.30;99.90;;;13.80;64.51;101369.69;6102256;22;97602;-45
2023/02/19 01:50:52;;;;;;;1.50;1.30;;;14.20;99.90;;;13.86;63.08;101373.88;6133350;22;97381;-51
2023/02/19 01:53:24;;;;;;;1.53;1.10;;;14.20;99.90;;;13.76;64.59;101376.03;6080737;22;101088;-46
2023/02/19 01:55:56;;;;;;;1.13;0.80;;;14.20;99.90;;;13.82;64.29;101373.13;6110100;22;98054;-54
2023/02/19 01:58:25;;;;;;;2.00;1.20;;;14.20;99.90;;;13.63;65.49;101372.09;6131754;22;98128;-48
2023/02/19 02:00:51;;;;;;;0.83;0.57;;;14.10;99.90;;;13.48;65.83;101370.00;6131275;22;97347;-52
2023/02/19 02:03:19;;;;;;;3.03;1.00;;;14.00;99.90;;;13.59;65.39;101375.75;6132415;22;111929;-53
2023/02/19 02:06:22;;;;;;;2.80;0.73;;;14.00;99.90;;;13.74;63.91;101367.22;6131040;22;97873;-45
2023/02/19 02:11:45;;;;;;;1.97;1.00;;;14.20;99.90;;;13.79;64.07;101375.91;6128853;22;102101;-48
2023/02/19 02:14:11;;;;;;;1.50;0.83;;;14.20;99.90;;;13.79;63.65;101367.94;6128171;22;97630;-46
2023/02/19 02:17:04;;;;;;;1.80;1.07;;;14.20;99.90;;;13.76;64.74;101391.06;6107536;22;97423;-48
2023/02/19 02:20:11;;;;;;;2.17;1.20;;;14.20;99.90;;;13.74;65.05;101383.16;6130691;22;98020;-48
2023/02/19 02:23:11;;;;;;;2.50;1.10;;;14.20;99.90;;;13.63;65.81;101377.41;6133365;22;102438;-44
2023/02/19 02:26:07;;;;;;;2.20;0.87;;;14.10;99.90;;;13.72;65.01;101381.47;6151479;22;101468;-45
2023/02/19 02:29:13;;;;;;;2.13;1.03;;;14.10;99.90;;;13.61;65.21;101368.66;6125725;22;97134;-46
2023/02/19 02:31:46;;;;;;;2.00;1.03;;;14.00;99.90;;;13.54;65.96;101377.72;6154542;22;96945;-46
2023/02/19 02:34:26;;;;;;;1.50;0.80;;;13.90;99.90;;;13.45;66.23;101367.44;6151611;22;97350;-44
2023/02/19 02:36:55;;;;;;;2.63;1.03;;;13.80;99.90;;;13.55;64.66;101366.19;6126334;22;97056;-46
2023/02/19 02:39:25;;;;;;;1.97;1.10;;;13.90;99.90;;;13.48;65.20;101362.91;6129084;22;97158;-45
2023/02/19 02:47:40;;;;;;;2.23;1.30;;;13.90;99.90;;;13.51;66.35;101361.94;6152891;22;100895;-45
2023/02/19 02:50:24;;;;;;;2.37;1.20;;;13.90;99.90;;;13.49;65.30;101358.47;6126087;22;96666;-50
2023/02/19 02:55:59;;;;;;;2.70;1.20;;;13.90;99.90;;;13.44;66.06;101363.06;6127502;22;100161;-46
2023/02/19 02:58:27;;;;;;;2.23;1.00;;;13.80;99.90;;;13.33;66.90;101369.63;6130779;22;97079;-45
2023/02/19 03:03:54;;;;;;;2.30;1.80;;;13.70;99.90;;;13.26;65.32;101362.81;6134959;22;97349;-49
2023/02/19 03:06:23;;;;;;;2.37;1.13;;;13.60;99.90;;;13.12;67.90;101370.34;6125690;22;102014;-46
2023/02/19 03:09:01;;;;;;;1.90;1.20;;;13.60;99.90;;;13.13;67.46;101377.38;6129541;22;98346;-48
2023/02/19 03:19:17;;;;;;;2.53;1.37;;;13.50;99.90;;;12.96;68.46;101387.69;6129861;22;97178;-50
2023/02/19 03:20:23;;;;;;;3.53;1.53;;;13.30;99.90;;;12.79;68.86;101391.78;6130046;22;99548;-49
2023/02/19 03:22:51;;;;;;;2.70;1.70;;;13.20;99.90;;;12.86;68.45;101388.91;6106502;22;97023;-50
2023/02/19 03:28:18;;;;;;;8.70;1.93;;;13.30;99.90;;;12.85;68.46;101392.47;6128996;22;97356;-45
2023/02/19 03:30:50;;;;;;;2.40;1.43;;;13.30;99.90;;;12.84;67.89;101393.38;6127862;22;97224;-50
2023/02/19 03:33:25;;;;;;;3.97;2.23;;;13.30;99.90;;;12.89;68.27;101402.94;6126779;22;96555;-47
2023/02/19 03:36:01;;;;;;;2.43;1.53;;;13.30;99.90;;;12.92;67.67;101388.72;6157773;22;99301;-56
2023/02/19 03:38:45;;;;;;;7.07;1.90;;;13.30;99.90;;;12.95;67.74;101404.50;6125869;22;96948;-50
2023/02/19 03:41:30;;;;;;;2.97;1.53;;;13.40;99.90;;;12.89;68.00;101394.13;6153016;22;97412;-47
2023/02/19 03:44:23;;;;;;;2.50;1.43;;;13.30;99.90;;;12.98;67.47;101404.38;6126494;22;97203;-48
2023/02/19 03:47:23;;;;;;;2.63;1.50;;;13.40;99.90;;;12.89;67.66;101415.31;6158922;22;96966;-45
2023/02/19 03:50:19;;;;;;;3.40;1.97;;;13.40;99.90;;;12.97;67.29;101408.81;6128575;22;101437;-46
2023/02/19 03:53:21;;;;;;;4.23;2.50;;;13.30;99.90;;;12.81;67.82;101419.06;6127140;22;99846;-49
2023/02/19 03:56:15;;;;;;;4.63;2.20;;;13.30;99.90;;;12.93;66.81;101422.22;6152228;22;97433;-49
2023/02/19 03:58:59;;;;;;;5.33;1.93;;;13.30;99.90;;;12.87;67.84;101422.41;6138398;22;96960;-48
2023/02/19 04:01:45;;;;;;;3.53;1.90;;;13.30;99.90;;;12.77;67.89;101422.72;6125293;22;101504;-46
2023/02/19 04:04:24;;;;;;;5.43;2.07;;;13.20;99.90;;;12.82;67.84;101431.38;6125879;22;98333;-46
2023/02/19 04:06:55;;;;;;;3.80;1.83;;;13.30;99.90;;;12.88;67.54;101429.47;6131933;22;97062;-50
2023/02/19 04:09:28;;;;;;;2.73;1.90;;;13.30;99.90;;;12.88;67.65;101429.47;6153590;22;97087;-46
2023/02/19 04:11:54;;;;;;;3.07;2.23;;;13.30;99.90;;;12.82;67.76;101441.97;6153691;22;97608;-47
2023/02/19 04:14:27;;;;;;;4.97;2.03;;;13.30;99.90;;;12.86;67.34;101447.16;6130433;22;97042;-49
2023/02/19 04:17:01;;;;;;;6.23;2.17;;;13.30;99.90;;;12.96;66.98;101444.16;6127153;22;97085;-48
2023/02/19 04:19:32;;;;;;;4.43;2.13;;;13.30;99.90;;;13.08;66.73;101442.91;6131253;22;97250;-47
2023/02/19 04:21:59;;;;;;;3.33;1.67;;;13.40;99.90;;;13.00;67.06;101450.22;6123487;22;98223;-46
2023/02/19 04:24:45;;;;;;;3.50;1.60;;;13.40;99.90;;;13.04;67.28;101454.53;6129050;22;96954;-52
2023/02/19 04:27:11;;;;;;;3.43;1.40;;;13.40;99.90;;;13.04;66.98;101462.47;6126584;22;97568;-45
2023/02/19 04:29:37;;;;;;;2.37;1.47;;;13.40;99.90;;;13.07;66.67;101462.34;6156852;22;97176;-47
2023/02/19 04:32:03;;;;;;;5.83;2.13;;;13.40;99.90;;;12.99;67.20;101464.38;6152624;22;108685;-49
2023/02/19 04:34:28;;;;;;;4.33;1.73;;;13.40;99.90;;;13.05;66.40;101464.19;6156974;22;98165;-45
2023/02/19 04:36:54;;;;;;;5.80;2.20;;;13.40;99.90;;;13.00;67.11;101466.97;6153585;22;97286;-47
2023/02/19 04:39:20;;;;;;;4.77;2.37;;;13.50;99.90;;;13.10;66.10;101457.81;6156215;22;96980;-47
2023/02/19 04:41:46;;;;;;;6.53;2.30;;;13.50;99.90;;;13.07;66.64;101462.34;6130606;22;97122;-46
2023/02/19 04:44:11;;;;;;;4.47;2.53;;;13.50;99.90;;;13.02;67.20;101470.47;6151621;22;106072;-47
2023/02/19 04:46:40;;;;;;;3.73;1.97;;;13.50;99.90;;;13.02;67.51;101480.19;6156584;22;96898;-50
2023/02/19 04:49:06;;;;;;;3.37;1.93;;;13.50;99.90;;;12.97;67.44;101479.44;6150985;22;97251;-48
2023/02/19 04:51:32;;;;;;;1.57;1.10;;;13.40;99.90;;;13.00;67.18;101482.88;6157941;22;104609;-49
2023/02/19 04:53:58;;;;;;;3.57;1.90;;;13.40;99.90;;;13.06;66.24;101481.81;6153221;22;96732;-48
2023/02/19 04:56:24;;;;;;;3.30;1.67;;;13.50;99.90;;;13.21;65.79;101481.34;6158340;22;97191;-48
2023/02/19 04:58:50;;;;;;;3.63;1.93;;;13.60;99.90;;;13.29;65.12;101487.22;6130811;22;97191;-48
2023/02/19 05:01:16;;;;;;;4.43;1.73;;;13.60;99.90;;;13.18;66.20;101481.44;6153914;22;97675;-47
2023/02/19 05:03:42;;;;;;;4.23;1.97;;;13.60;99.90;;;13.15;66.55;101492.09;6156274;22;98313;-46
2023/02/19 05:06:11;;;;;;;4.07;1.93;;;13.60;99.90;;;13.25;65.74;101501.50;6127164;22;97442;-47
2023/02/19 05:08:37;;;;;;;6.07;2.13;;;13.60;99.90;;;13.17;66.08;101495.56;6156970;22;96978;-45
2023/02/19 05:11:06;;;;;;;5.20;1.93;;;13.60;99.90;;;13.26;65.07;101490.00;6152682;22;96660;-49
2023/02/19 05:13:33;;;;;;;4.27;2.00;;;13.60;99.90;;;13.22;66.13;101503.41;6156158;22;96979;-47
2023/02/19 05:16:00;;;;;;;3.53;2.10;;;13.60;99.90;;;13.18;65.87;101505.28;6153125;22;97095;-47
2023/02/19 05:18:26;;;;;;;2.50;1.40;;;13.50;99.90;;;13.13;65.60;101499.22;6157361;22;97149;-45
2023/02/19 05:20:52;;;;;;;3.93;1.97;;;13.50;99.90;;;13.04;67.43;101504.84;6149552;22;97518;-50
2023/02/19 05:23:20;;;;;;;5.77;2.03;;;13.50;99.90;;;13.05;67.45;101511.88;6157151;22;107159;-50
2023/02/19 05:25:46;;;;;;;3.73;1.80;;;13.40;99.90;;;13.09;67.47;101509.06;6158305;22;96998;-49
2023/02/19 05:28:18;;;;;;;3.57;2.00;;;13.40;99.90;;;13.13;65.64;101509.81;6128386;22;101247;-49
2023/02/19 05:30:50;;;;;;;3.13;1.93;;;13.40;99.90;;;12.84;68.17;101517.84;6158105;22;97729;-50
2023/02/19 05:33:20;;;;;;;6.57;3.27;;;13.30;99.90;;;12.81;68.76;101524.09;6154186;22;97434;-48
2023/02/19 05:35:52;;;;;;;5.47;3.10;;;13.10;99.90;;;12.69;68.88;101535.91;6157980;22;97404;-47
2023/02/19 05:38:18;;;;;;;4.63;2.60;;;13.10;99.90;;;12.60;69.37;101535.34;6154286;22;97620;-46
2023/02/19 05:40:45;;;;;;;5.00;2.17;;;13.00;99.90;;;12.50;69.96;101532.97;6157738;22;97703;-45
2023/02/19 05:43:12;;;;;;;8.00;3.40;;;12.90;99.90;;;12.55;70.07;101543.41;6155139;22;96943;-47
2023/02/19 05:45:38;;;;;;;4.67;2.60;;;12.90;99.90;;;12.43;69.99;101559.66;6157939;22;96958;-44
2023/02/19 05:48:06;;;;;;;5.33;3.00;;;12.80;99.90;;;12.39;70.65;101552.72;6154706;22;97140;-45
2023/02/19 05:50:35;;;;;;;5.50;2.40;;;12.80;99.90;;;12.36;70.52;101552.81;6156730;22;98618;-49
2023/02/19 05:53:02;;;;;;;4.40;2.83;;;12.80;99.90;;;12.36;70.62;101552.81;6153923;22;97471;-44
2023/02/19 05:55:29;;;;;;;6.00;3.57;;;12.70;99.90;;;12.30;70.85;101553.00;6158151;22;96734;-46
2023/02/19 05:57:55;;;;;;;5.53;2.57;;;12.70;99.90;;;12.23;71.08;101562.00;6127252;22;97537;-47
2023/02/19 06:00:21;;;;;;;4.93;2.67;;;12.70;99.90;;;12.23;71.03;101559.34;6156536;22;114301;-46
2023/02/19 06:02:47;;;;;;;5.77;2.67;;;12.60;99.90;;;12.24;71.03;101563.75;6159552;22;96819;-46
2023/02/19 06:05:13;;;;;;;7.67;3.60;;;12.60;99.90;;;12.26;70.73;101568.06;6154108;22;96735;-45
2023/02/19 06:07:40;;;;;;;6.07;3.13;;;12.60;99.90;;;12.30;70.45;101564.44;6158531;22;97092;-46
2023/02/19 06:10:07;;;;;;;5.90;2.20;;;12.70;99.90;;;12.33;70.21;101563.50;6127492;22;97717;-45
2023/02/19 06:12:33;;;;;;;4.87;2.60;;;12.70;99.90;;;12.30;70.00;101574.16;6131973;22;97280;-49
2023/02/19 06:14:59;;;;;;;4.80;1.93;;;12.70;99.90;;;12.37;69.17;101571.28;6127911;22;97012;-45
2023/02/19 06:17:25;;;;;;;7.63;2.30;;;12.70;99.90;;;12.58;68.47;101577.72;6162282;22;97229;-50
2023/02/19 06:19:51;;;;;;;3.67;2.47;;;12.90;99.90;;;12.68;68.14;101576.53;6158752;22;99703;-44
2023/02/19 06:22:16;;;;;;;7.27;2.77;;;13.00;99.90;;;12.72;68.13;101583.47;6155677;22;101049;-45
2023/02/19 06:24:42;;;;;;;2.97;1.97;;;13.10;99.90;;;12.85;67.53;101583.97;6131222;22;97156;-44
2023/02/19 06:27:08;;;;;;;5.23;1.63;;;13.20;99.90;;;12.85;66.98;101585.75;6156857;22;97367;-46
2023/02/19 06:29:37;;;;;;;4.20;2.70;;;13.20;99.90;;;12.79;67.33;101578.88;6161003;22;97746;-51
2023/02/19 06:32:04;;;;;;;6.83;3.10;;;13.20;99.90;;;12.74;67.73;101592.28;6157765;22;97247;-47
2023/02/19 06:34:31;;;;;;;5.17;2.63;;;13.20;99.90;;;12.66;68.02;101588.97;6161580;22;96876;-44
2023/02/19 06:36:58;;;;;;;3.47;2.57;;;13.10;99.90;;;12.65;68.13;101587.22;6130886;22;96736;-50
2023/02/19 06:39:24;;;;;;;3.57;2.57;;;13.00;99.90;;;12.35;68.66;101596.94;6161426;22;97112;-50
2023/02/19 06:41:50;;;;;;;4.20;2.07;;;12.80;99.90;;;12.51;68.54;101597.34;6135903;22;97126;-52
2023/02/19 06:44:16;;;;;;;4.33;2.43;;;12.90;99.90;;;12.44;68.22;101599.31;6131814;22;97065;-49
2023/02/19 06:46:42;;;;;;;7.40;2.23;;;12.80;99.90;;;12.46;68.42;101607.22;6160798;22;97307;-45
2023/02/19 06:49:08;;;;;;;3.80;2.33;;;12.80;99.90;;;12.35;68.51;101611.94;6155979;22;102493;-50
2023/02/19 06:51:34;;;;;;;3.90;1.77;;;12.80;99.90;;;12.45;68.49;101605.47;6159986;22;98333;-45
2023/02/19 06:54:01;;;;;;;5.60;2.57;;;12.80;99.90;;;12.42;68.52;101610.84;6153524;22;96819;-44
2023/02/19 06:56:28;;;;;;;3.77;2.33;;;12.80;99.90;;;12.34;68.59;101621.66;6161458;22;97099;-44
2023/02/19 06:58:58;;;;;;;4.33;2.67;;;12.80;99.90;;;12.39;68.76;101613.56;6155641;22;97014;-51
2023/02/19 07:01:25;;;;;;;4.07;2.63;;;12.70;99.90;;;12.33;68.86;101616.41;6159739;22;97297;-50
2023/02/19 07:03:51;;;;;;;3.90;2.47;;;12.70;99.90;;;12.21;69.26;101623.75;6156556;22;96864;-46
2023/02/19 07:06:18;;;;;;;2.47;1.90;;;12.60;99.90;;;12.28;69.17;101634.16;6153409;22;97148;-45
2023/02/19 07:08:44;;;;;;;1.97;1.40;;;12.60;99.90;;;12.23;68.83;101623.72;6155325;22;97320;-46
2023/02/19 07:11:10;;;;;;;2.33;1.63;;;12.60;99.90;;;12.18;68.88;101638.84;6152469;22;99041;-47
2023/02/19 07:13:36;;;;;;;3.53;2.03;;;12.60;99.90;;;12.30;68.16;101648.25;6155638;22;97120;-50
2023/02/19 07:16:07;;;;;;;3.37;1.93;;;12.70;99.90;;;12.25;68.82;101648.34;6149888;22;97335;-44
2023/02/19 07:18:33;;;;;;;4.97;2.20;;;12.70;99.90;;;12.24;68.75;101658.97;6155905;22;97191;-48
2023/02/19 07:21:13;;;;;;;2.83;1.70;;;12.60;99.90;;;12.26;68.95;101665.09;6146642;22;98306;-49
2023/02/19 07:23:41;;;;;;;2.20;1.87;;;12.60;99.90;;;12.06;68.73;101655.03;6155391;22;97496;-46
2023/02/19 07:26:16;;;;;;;5.90;1.93;;;12.60;99.90;;;12.28;68.73;101657.97;6151726;22;98996;-45
2023/02/19 07:28:44;;;;;;;3.03;1.70;;;12.60;99.90;;;12.30;68.64;101664.97;6154421;22;96657;-49
2023/02/19 07:31:10;;;;;;;2.40;1.77;;;12.60;99.90;;;12.29;68.21;101663.22;6153028;22;97131;-51
2023/02/19 07:33:36;;;;;;;2.30;1.90;;;12.70;99.90;;;12.23;68.79;101678.41;6156843;22;97102;-46
2023/02/19 07:36:06;;;;;;;6.27;1.80;;;12.60;99.90;;;12.18;68.54;101676.75;6151489;22;98228;-47
2023/02/19 07:38:31;;;;;;;4.00;2.17;;;12.60;99.90;;;12.30;68.57;101686.16;6153662;22;102146;-46
2023/02/19 07:41:00;;;;;;;3.83;1.80;;;12.60;99.90;;;12.26;68.56;101687.13;6153537;22;104196;-46
2023/02/19 07:43:30;;;;;;;3.60;2.07;;;12.70;99.90;;;12.27;68.72;101690.63;6155679;22;97215;-50
2023/02/19 07:45:56;;;;;;;3.20;1.77;;;12.60;99.90;;;12.41;67.82;101699.06;6152632;22;96975;-49
2023/02/19 07:48:22;;;;;;;2.13;1.20;;;12.70;99.90;;;12.36;68.17;101711.56;6158021;22;97223;-46
2023/02/19 07:50:57;;;;;;;3.70;2.00;;;12.70;99.90;;;12.27;68.76;101698.56;6129034;22;97264;-47
2023/02/19 07:53:24;;;;;;;4.67;1.43;;;12.70;99.90;;;12.30;68.29;101706.44;6153556;22;96570;-47
2023/02/19 07:55:50;;;;;;;9.70;2.00;;;12.70;99.90;;;12.04;69.53;101712.41;6156579;22;97459;-47
2023/02/19 07:58:17;;;;;;;1.87;1.57;;;12.50;99.90;;;12.12;69.19;101713.91;6152252;22;97828;-48
2023/02/19 08:00:43;;;;;;;4.17;2.13;;;12.50;99.90;;;11.87;70.17;101713.69;6129872;22;100121;-47
2023/02/19 08:03:10;;;;;;;4.00;2.10;;;12.40;99.90;;;11.88;70.33;101725.13;6151257;22;96923;-50
2023/02/19 08:05:41;;;;;;;3.87;1.67;;;12.30;99.90;;;11.97;70.43;101729.31;6156520;22;96914;-48
2023/02/19 08:08:10;;;;;;;3.67;1.80;;;12.40;99.90;;;11.79;70.76;101741.19;6151740;22;97506;-47
2023/02/19 08:13:21;;;;;;;4.80;1.97;;;12.30;99.90;;;11.99;70.02;101732.78;6153052;22;97218;-46
2023/02/19 08:16:01;;;;;;;3.17;1.60;;;12.30;99.90;;;11.92;69.75;101742.66;6115551;22;103066;-48
2023/02/19 08:18:31;;;;;;;2.30;1.23;;;12.40;99.90;;;11.89;70.18;101737.44;6154162;22;101496;-50
2023/02/19 08:20:58;;;;;;;2.67;1.67;;;12.30;99.90;;;11.78;70.57;101747.34;6151751;22;97333;-51
2023/02/19 08:23:26;;;;;;;2.50;1.63;;;12.20;99.90;;;11.84;70.70;101750.75;6154919;22;97124;-45
2023/02/19 08:25:53;;;;;;;5.37;1.83;;;12.20;99.90;;;11.81;70.90;101744.66;6157006;22;96784;-51
2023/02/19 08:28:19;;;;;;;3.20;1.63;;;12.20;99.90;;;12.02;69.79;101754.75;6151645;22;101113;-47
2023/02/19 08:30:46;;;;;;;6.27;2.57;;;12.40;99.90;;;11.97;70.21;101761.91;6151390;22;105554;-45
2023/02/19 08:33:16;;;;;;;7.77;2.60;;;12.40;99.90;;;12.02;70.29;101759.16;6151055;22;97512;-46
2023/02/19 08:35:43;;;;;;;3.03;2.00;;;12.40;99.90;;;12.07;69.77;101774.00;6156082;22;97300;-46
2023/02/19 08:38:11;;;;;;;2.67;1.60;;;12.40;99.90;;;12.02;69.74;101770.63;6151097;22;97374;-45
2023/02/19 08:40:39;;;;;;;2.67;1.30;;;12.40;99.90;;;11.99;69.57;101781.25;6153079;22;98525;-50
2023/02/19 08:43:14;;;;;;;2.37;1.70;;;12.40;99.90;;;12.02;69.66;101775.91;6150970;22;97061;-47
2023/02/19 08:45:43;;;;;;;7.07;2.20;;;12.40;99.90;;;11.96;69.26;101781.31;6158570;22;97109;-50
2023/02/19 08:48:10;;;;;;;2.93;1.57;;;12.40;99.90;;;12.01;69.37;101779.47;6125440;22;97105;-46
2023/02/19 08:50:37;;;;;;;4.80;1.70;;;12.40;99.90;;;12.09;69.03;101768.69;6154929;22;97092;-48
2023/02/19 08:53:04;;;;;;;3.83;1.93;;;12.50;99.90;;;12.01;69.12;101771.53;6152288;22;97100;-48
2023/02/19 08:55:29;;;;;;;4.17;1.70;;;12.50;99.90;;;12.05;69.36;101781.13;6156226;22;97143;-49
2023/02/19 08:57:55;;;;;;;4.47;1.57;;;12.40;99.90;;;12.07;68.97;101781.94;6149140;22;101123;-45
2023/02/19 09:00:21;;;;;;;3.63;1.50;;;12.50;99.90;;;12.09;68.82;101777.47;6156316;22;96919;-47
2023/02/19 09:02:48;;;;;;;4.67;1.60;;;12.50;99.90;;;12.19;68.74;101786.94;6127267;22;99428;-45
2023/02/19 09:05:15;;;;;;;2.77;1.90;;;12.50;99.90;;;12.11;68.30;101788.00;6151746;22;97640;-47
2023/02/19 09:07:42;;;;;;;4.30;2.20;;;12.50;99.90;;;12.17;68.41;101799.34;6156895;22;97626;-49
2023/02/19 09:10:12;;;;;;;1.57;1.33;;;12.60;99.90;;;12.09;68.13;101795.13;6149995;22;97037;-47
2023/02/19 09:12:39;;;;;;;5.87;1.70;;;12.50;99.90;;;11.99;67.58;101791.81;6157795;22;96925;-46
2023/02/19 09:15:05;;;;;;;6.13;2.27;;;12.40;99.90;;;12.03;68.23;101797.94;6151526;22;96977;-48
2023/02/19 09:17:31;;;;;;;2.80;1.80;;;12.40;99.90;;;11.95;68.32;101800.72;6153417;22;97454;-49
2023/02/19 09:19:57;;;;;;;2.77;1.80;;;12.40;99.90;;;11.95;68.08;101811.31;6150313;22;103916;-51
2023/02/19 09:22:22;;;;;;;3.17;1.80;;;12.40;99.90;;;12.01;68.19;101805.91;6155101;22;97196;-45
2023/02/19 09:24:48;;;;;;;5.90;1.50;;;12.40;99.90;;;12.22;67.74;101799.22;6155788;22;97255;-48
2023/02/19 09:27:17;;;;;;;3.23;1.87;;;12.60;99.90;;;12.15;67.43;101808.19;6151831;22;110191;-45
2023/02/19 09:29:43;;;;;;;4.93;1.70;;;12.60;99.90;;;12.25;67.50;101804.44;6155608;22;97431;-46
2023/02/19 09:32:09;;;;;;;11.30;1.90;;;12.60;99.90;;;12.17;66.90;101809.91;6151689;22;97415;-47
2023/02/19 09:34:35;;;;;;;2.93;1.80;;;12.60;99.90;;;12.19;67.00;101816.03;6157154;22;96859;-45
2023/02/19 09:37:00;;;;;;;2.33;1.23;;;12.60;99.90;;;12.20;66.97;101817.78;6151220;22;97494;-50
2023/02/19 09:39:26;;;;;;;2.60;1.37;;;12.60;99.90;;;12.13;67.25;101832.03;6155975;22;102195;-47
2023/02/19 09:41:58;;;;;;;3.87;1.57;;;12.60;99.90;;;12.12;67.54;101834.72;6152544;22;97113;-52
2023/02/19 09:44:31;;;;;;;7.40;2.10;;;12.50;99.90;;;12.27;66.97;101838.78;6153648;22;97315;-45
2023/02/19 09:46:59;;;;;;;2.37;1.50;;;12.60;99.90;;;12.16;67.21;101839.06;6151210;22;97803;-50
2023/02/19 09:49:34;;;;;;;4.97;1.80;;;12.60;99.90;;;12.17;68.36;101839.03;6156034;22;97309;-45
2023/02/19 09:52:29;;;;;;;2.07;1.10;;;12.60;99.90;;;12.24;68.43;101845.00;6150383;22;97154;-45
2023/02/19 09:55:00;;;;;;;4.07;1.40;;;12.60;99.90;;;12.24;68.59;101847.66;6148672;22;96995;-45
2023/02/19 09:57:29;;;;;;;2.60;1.07;;;12.60;99.90;;;12.10;68.16;101837.41;6156147;22;97083;-52
2023/02/19 10:00:23;;;;;;;1.07;0.90;;;12.50;99.90;;;12.00;68.23;101841.16;6124677;22;97167;-44
2023/02/19 10:03:29;;;;;;;2.67;0.80;;;12.40;99.90;;;12.13;67.74;101837.31;6130461;22;97130;-47
2023/02/19 10:06:03;;;;;;;5.17;1.30;;;12.50;99.90;;;12.49;66.62;101840.00;6131687;22;97103;-44
2023/02/19 10:08:33;;;;;;;3.10;1.13;;;12.70;99.90;;;12.59;66.38;101852.13;6126952;22;97588;-47
2023/02/19 10:11:02;;;;;;;0.80;0.70;;;12.90;99.90;;;12.65;66.67;101851.94;6151672;22;97112;-45
2023/02/19 10:13:36;;;;;;;0.93;0.70;;;13.00;99.90;;;12.55;66.99;101850.44;6129585;22;97544;-48
2023/02/19 10:16:06;;;;;;;3.03;1.17;;;13.00;99.90;;;12.39;67.48;101864.94;6150584;22;96797;-44
2023/02/19 10:18:42;;;;;;;0.73;0.73;;;12.80;99.90;;;12.44;68.01;101873.63;6155976;22;97926;-48
2023/02/19 10:21:22;;;;;;;4.13;1.00;;;12.80;99.90;;;12.32;68.64;101879.25;6152554;22;97266;-48
2023/02/19 10:23:52;;;;;;;1.57;1.27;;;12.70;99.90;;;12.33;69.14;101894.22;6157317;22;97500;-49
2023/02/19 10:26:19;;;;;;;2.50;1.10;;;12.70;99.90;;;12.27;69.61;101902.28;6101122;22;96888;-47
2023/02/19 10:28:44;;;;;;;3.23;0.90;;;12.60;99.90;;;12.34;69.25;101925.06;6156242;22;98821;-47
2023/02/19 10:31:23;;;;;;;1.60;0.77;;;12.70;99.90;;;12.25;70.07;101914.66;6150828;22;101331;-47
2023/02/19 10:33:54;;;;;;;1.30;1.10;;;12.60;99.90;;;12.30;69.71;101913.69;6128408;22;96976;-46
2023/02/19 10:36:40;;;;;;;1.00;0.60;;;12.70;99.90;;;12.33;69.88;101902.16;6124268;22;97865;-46
2023/02/19 10:39:21;;;;;;;2.30;1.07;;;12.60;99.90;;;12.41;69.16;101905.47;6122667;22;97752;-50
2023/02/19 10:41:49;;;;;;;1.53;0.90;;;12.80;99.90;;;12.24;68.65;101924.38;6138534;22;97203;-48
2023/02/19 10:44:27;;;;;;;1.63;0.90;;;12.70;99.90;;;12.08;68.72;101938.84;6100922;22;97457;-46
2023/02/19 10:46:56;;;;;;;5.93;1.00;;;12.60;99.90;;;12.10;68.71;101932.63;6129607;22;97683;-47
2023/02/19 10:49:28;;;;;;;3.17;1.40;;;12.50;99.90;;;12.09;68.77;101930.00;6110747;22;100217;-44
2023/02/19 10:52:00;;;;;;;2.70;0.80;;;12.50;99.90;;;12.17;68.69;101944.81;6097368;22;98387;-47
2023/02/19 10:54:34;;;;;;;1.53;0.93;;;12.50;99.90;;;12.17;68.82;101943.97;6100696;22;97497;-48